Time;durP1;ratioP1;P1;durP2;ratioP2;P2;SDS_P1;SDS_P2;PMS_P1;PMS_P2;Temp;Humidity;BMP_temperature;BMP_pressure;BME280_temperature;BME280_humidity;BME280_pressure;Samples;Min_cycle;Max_cycle;Signal;HPM_P1;HPM_P2
2022/06/04 00:01:26;;;;;;;4.07;2.90;;;;;;;21.40;nan;98515.03;4989497;28;20259;-63
2022/06/04 00:03:52;;;;;;;2.33;2.08;;;;;;;21.35;nan;98506.66;4990178;28;20038;-63
2022/06/04 00:06:17;;;;;;;2.85;2.60;;;;;;;21.37;nan;98523.06;4988578;28;20639;-63
2022/06/04 00:08:42;;;;;;;3.38;2.47;;;;;;;21.40;nan;98522.84;4989277;28;20044;-63
2022/06/04 00:16:36;;;;;;;2.70;2.50;;;;;;;21.35;nan;98517.94;4989414;28;20037;-63
2022/06/04 00:19:03;;;;;;;2.38;2.17;;;;;;;21.36;nan;98508.34;4992110;28;20038;-62
2022/06/04 00:21:28;;;;;;;2.40;2.22;;;;;;;21.42;nan;98513.16;4993992;28;20404;-64
2022/06/04 00:23:54;;;;;;;2.83;2.55;;;;;;;21.36;nan;98501.34;4988090;28;20045;-61
2022/06/04 00:26:19;;;;;;;4.30;2.25;;;;;;;21.39;nan;98515.97;4988167;28;20065;-63
2022/06/04 00:28:48;;;;;;;2.70;2.47;;;;;;;21.34;nan;98505.00;4993445;28;20084;-63
2022/06/04 00:31:15;;;;;;;3.08;2.30;;;;;;;21.35;nan;98517.94;4993672;28;20539;-62
2022/06/04 00:33:41;;;;;;;4.43;2.58;;;;;;;21.35;nan;98514.47;4988701;28;20109;-63
2022/06/04 00:36:06;;;;;;;2.47;2.25;;;;;;;21.33;nan;98519.81;4987592;28;20160;-63
2022/06/04 00:38:33;;;;;;;2.13;2.00;;;;;;;21.15;nan;98502.72;4991641;28;20790;-62
2022/06/04 00:41:29;;;;;;;2.17;2.00;;;;;;;21.31;nan;98526.88;4989079;28;20026;-63
2022/06/04 00:44:25;;;;;;;2.65;1.80;;;;;;;21.25;nan;98510.81;4989239;28;20393;-62
2022/06/04 00:47:14;;;;;;;2.10;2.00;;;;;;;21.23;nan;98520.50;4979385;28;20042;-63
2022/06/04 00:49:40;;;;;;;3.35;2.00;;;;;;;21.14;nan;98521.91;4987752;28;20241;-62
2022/06/04 00:52:10;;;;;;;2.33;2.10;;;;;;;21.21;nan;98535.41;4988301;28;20045;-63
2022/06/04 00:54:36;;;;;;;2.28;2.05;;;;;;;21.17;nan;98540.00;5003413;28;20030;-64
2022/06/04 00:57:07;;;;;;;2.88;2.53;;;;;;;21.21;nan;98541.47;4988956;28;20812;-62
2022/06/04 00:59:51;;;;;;;2.63;1.88;;;;;;;21.23;nan;98539.59;4988124;28;20595;-62
2022/06/04 01:02:16;;;;;;;2.10;2.00;;;;;;;21.10;nan;98558.66;4988670;28;20037;-62
2022/06/04 01:05:07;;;;;;;2.10;2.00;;;;;;;21.13;nan;98548.09;4992016;28;20053;-62
2022/06/04 01:07:47;;;;;;;2.70;1.90;;;;;;;21.08;nan;98569.22;4992437;28;20069;-62
2022/06/04 01:10:39;;;;;;;2.50;2.30;;;;;;;21.11;nan;98561.19;4988264;28;20040;-62
2022/06/04 01:13:32;;;;;;;1.92;1.83;;;;;;;21.09;nan;98577.88;4987864;28;20035;-62
2022/06/04 01:16:19;;;;;;;2.53;1.98;;;;;;;20.96;nan;98577.81;4991570;28;20454;-62
2022/06/04 01:19:06;;;;;;;2.35;2.25;;;;;;;20.80;nan;98571.81;4993839;28;20396;-63
2022/06/04 01:21:44;;;;;;;2.28;2.08;;;;;;;20.65;nan;98571.00;4988970;28;20461;-62
2022/06/04 01:24:13;;;;;;;2.15;1.85;;;;;;;20.49;nan;98568.50;5002899;28;20046;-62
2022/06/04 01:27:00;;;;;;;2.90;2.30;;;;;;;20.37;nan;98571.81;4987208;28;20037;-62
2022/06/04 01:29:37;;;;;;;1.73;1.60;;;;;;;20.20;nan;98560.72;4987755;28;20539;-62
2022/06/04 01:32:21;;;;;;;3.55;1.92;;;;;;;20.16;nan;98561.81;4988705;28;20454;-62
2022/06/04 01:35:09;;;;;;;2.35;2.15;;;;;;;20.21;nan;98559.75;4987384;28;20070;-62
2022/06/04 01:37:49;;;;;;;4.05;2.00;;;;;;;20.24;nan;98563.03;4983333;28;20045;-63
2022/06/04 01:43:08;;;;;;;2.17;1.98;;;;;;;20.42;nan;98554.16;4988648;28;20041;-62
2022/06/04 01:45:35;;;;;;;3.17;2.33;;;;;;;20.38;nan;98557.88;4991933;28;20053;-62
2022/06/04 01:48:02;;;;;;;2.53;2.33;;;;;;;20.31;nan;98551.38;4994171;28;20093;-62
2022/06/04 01:50:37;;;;;;;2.13;1.90;;;;;;;20.33;nan;98543.44;4993134;28;20038;-62
2022/06/04 01:53:06;;;;;;;2.30;1.80;;;;;;;20.35;nan;98554.63;4995633;28;20061;-62
2022/06/04 01:55:41;;;;;;;2.35;2.17;;;;;;;20.25;nan;98559.50;4996786;28;20045;-66
2022/06/04 01:58:17;;;;;;;2.28;2.00;;;;;;;20.29;nan;98560.16;4993524;28;20040;-62
2022/06/04 02:00:50;;;;;;;5.75;2.30;;;;;;;20.13;nan;98549.81;4991860;28;20683;-62
2022/06/04 02:03:44;;;;;;;4.18;2.25;;;;;;;20.13;nan;98559.38;4995457;28;20377;-61
2022/06/04 02:06:14;;;;;;;3.72;2.33;;;;;;;20.03;nan;98562.53;4952102;28;20710;-62
2022/06/04 02:08:53;;;;;;;2.45;2.35;;;;;;;20.07;nan;98565.81;4953136;28;20146;-62
2022/06/04 02:11:22;;;;;;;2.22;1.85;;;;;;;20.07;nan;98568.41;4954778;28;20162;-62
2022/06/04 02:13:51;;;;;;;2.45;2.20;;;;;;;20.06;nan;98575.38;4955956;28;20573;-62
2022/06/04 02:16:43;;;;;;;3.35;1.85;;;;;;;20.11;nan;98584.69;4954747;28;20128;-61
2022/06/04 02:19:09;;;;;;;3.45;2.20;;;;;;;20.00;nan;98585.28;4952459;28;20043;-61
2022/06/04 02:21:35;;;;;;;2.35;2.20;;;;;;;20.01;nan;98577.41;4956156;28;20042;-61
2022/06/04 02:24:01;;;;;;;2.80;1.98;;;;;;;19.86;nan;98567.88;4956799;28;20137;-61
2022/06/04 02:26:27;;;;;;;3.15;2.25;;;;;;;19.92;nan;98590.94;4952650;28;20577;-62
2022/06/04 02:28:56;;;;;;;2.95;2.40;;;;;;;19.93;nan;98582.22;4951489;28;20067;-61
2022/06/04 02:31:39;;;;;;;3.00;2.13;;;;;;;19.85;nan;98574.03;4949418;28;20046;-62
2022/06/04 02:34:23;;;;;;;3.72;2.58;;;;;;;19.89;nan;98583.31;4953248;28;20054;-62
2022/06/04 02:37:18;;;;;;;2.45;2.28;;;;;;;19.95;nan;98577.75;4950633;28;20095;-62
2022/06/04 02:40:20;;;;;;;2.50;2.40;;;;;;;20.01;nan;98587.81;4952333;28;20383;-61
2022/06/04 02:43:04;;;;;;;2.70;2.50;;;;;;;19.92;nan;98579.69;4963781;28;20076;-62
2022/06/04 02:45:38;;;;;;;2.23;2.10;;;;;;;19.94;nan;98580.47;4990989;28;20671;-62
2022/06/04 02:48:20;;;;;;;2.35;2.25;;;;;;;19.99;nan;98588.81;4991054;28;20034;-62
2022/06/04 02:50:55;;;;;;;2.85;2.53;;;;;;;19.94;nan;98591.69;4996241;28;20038;-62
2022/06/04 02:53:21;;;;;;;2.95;2.42;;;;;;;19.84;nan;98587.94;4993897;28;20378;-62
2022/06/04 02:55:59;;;;;;;2.33;2.22;;;;;;;19.87;nan;98598.16;4990487;28;20128;-62
2022/06/04 02:58:27;;;;;;;2.85;2.65;;;;;;;19.66;nan;98590.75;4993271;28;20088;-62
2022/06/04 03:00:56;;;;;;;2.90;2.72;;;;;;;19.70;nan;98602.66;4996728;28;20069;-62
2022/06/04 03:03:23;;;;;;;2.83;2.63;;;;;;;19.58;nan;98614.59;4992438;28;20117;-62
2022/06/04 03:06:00;;;;;;;2.50;2.10;;;;;;;19.55;nan;98605.19;4990915;28;20026;-62
2022/06/04 03:08:27;;;;;;;2.53;2.42;;;;;;;19.54;nan;98610.47;4993658;28;20033;-62
2022/06/04 03:10:53;;;;;;;2.78;2.58;;;;;;;19.48;nan;98605.59;4991485;28;20524;-62
2022/06/04 03:13:18;;;;;;;2.60;2.50;;;;;;;19.49;nan;98602.09;4989934;28;20184;-62
2022/06/04 03:15:44;;;;;;;2.85;2.47;;;;;;;19.52;nan;98610.56;4990052;28;20468;-62
2022/06/04 03:18:10;;;;;;;2.80;2.60;;;;;;;19.49;nan;98615.94;5007753;28;20514;-62
2022/06/04 03:20:35;;;;;;;2.70;2.50;;;;;;;19.51;nan;98613.25;4996455;28;20034;-62
2022/06/04 03:23:01;;;;;;;2.55;2.33;;;;;;;19.53;nan;98608.78;4992556;28;20413;-62
2022/06/04 03:25:26;;;;;;;2.83;2.60;;;;;;;19.63;nan;98609.13;4991377;28;20137;-62
2022/06/04 03:27:52;;;;;;;2.55;2.35;;;;;;;19.72;nan;98608.63;4989888;28;20061;-58
2022/06/04 03:30:17;;;;;;;2.33;2.13;;;;;;;19.74;nan;98612.78;4989955;28;20117;-60
2022/06/04 03:32:43;;;;;;;4.05;2.50;;;;;;;19.66;nan;98614.16;4990071;28;20116;-63
2022/06/04 03:35:10;;;;;;;2.53;2.30;;;;;;;19.72;nan;98621.63;4991537;28;20121;-63
2022/06/04 03:37:36;;;;;;;2.60;2.40;;;;;;;19.78;nan;98611.69;4994315;28;20034;-63
2022/06/04 03:40:04;;;;;;;2.28;2.17;;;;;;;19.82;nan;98615.81;4991383;28;20109;-63
2022/06/04 03:42:29;;;;;;;2.08;1.98;;;;;;;19.92;nan;98616.97;4989851;28;20038;-63
2022/06/04 03:44:54;;;;;;;3.28;2.97;;;;;;;19.93;nan;98605.63;4990134;28;20057;-63
2022/06/04 03:47:21;;;;;;;2.63;2.53;;;;;;;19.99;nan;98618.28;4992105;28;20038;-63
2022/06/04 03:49:46;;;;;;;3.20;2.78;;;;;;;20.00;nan;98606.94;4992184;28;20034;-63
2022/06/04 03:52:12;;;;;;;2.78;2.58;;;;;;;20.03;nan;98606.78;4989301;28;20088;-63
2022/06/04 03:54:54;;;;;;;3.08;2.13;;;;;;;20.19;nan;98624.97;4992466;28;20038;-63
2022/06/04 03:57:41;;;;;;;2.95;2.38;;;;;;;20.18;nan;98628.50;4992104;28;20033;-63
2022/06/04 04:00:15;;;;;;;2.20;2.00;;;;;;;20.14;nan;98628.75;4989055;28;20038;-63
2022/06/04 04:02:42;;;;;;;4.28;2.78;;;;;;;20.12;nan;98608.00;4988241;28;20553;-63
2022/06/04 04:05:10;;;;;;;3.00;2.72;;;;;;;20.27;nan;98625.34;4988439;28;20041;-63
2022/06/04 04:07:36;;;;;;;3.10;2.80;;;;;;;20.41;nan;98627.19;4988252;28;20034;-63
2022/06/04 04:10:03;;;;;;;4.25;2.10;;;;;;;20.68;nan;98622.09;4987530;28;20026;-63
2022/06/04 04:12:28;;;;;;;3.15;2.40;;;;;;;20.73;nan;98617.44;4990991;28;20069;-63
2022/06/04 04:14:54;;;;;;;2.33;2.13;;;;;;;20.81;nan;98629.09;4993651;28;20122;-63
2022/06/04 04:17:20;;;;;;;3.45;2.08;;;;;;;21.08;nan;98621.34;4993998;28;20076;-64
2022/06/04 04:19:45;;;;;;;2.47;2.30;;;;;;;21.19;nan;98615.50;4990283;28;20373;-64
2022/06/04 04:22:11;;;;;;;3.53;2.13;;;;;;;21.41;nan;98621.03;4990826;28;20057;-63
2022/06/04 04:24:36;;;;;;;2.10;2.00;;;;;;;21.50;nan;98614.41;4993471;28;20056;-63
2022/06/04 04:27:01;;;;;;;3.67;2.38;;;;;;;21.36;nan;98617.88;4991909;28;20145;-64
2022/06/04 04:29:27;;;;;;;4.05;2.25;;;;;;;21.52;nan;98613.38;4988841;28;20030;-62
2022/06/04 04:31:52;;;;;;;2.10;1.92;;;;;;;21.55;nan;98617.56;4991828;28;20129;-62
2022/06/04 04:34:18;;;;;;;2.58;2.38;;;;;;;21.52;nan;98617.75;4989901;28;20053;-64
2022/06/04 04:36:45;;;;;;;2.45;2.10;;;;;;;21.72;nan;98627.78;4991993;28;20041;-62
2022/06/04 04:39:11;;;;;;;2.17;2.08;;;;;;;21.73;nan;98632.88;4989124;28;20389;-63
2022/06/04 04:41:36;;;;;;;2.85;2.30;;;;;;;21.72;nan;98641.66;4993530;28;20104;-62
2022/06/04 04:44:02;;;;;;;3.63;2.47;;;;;;;21.77;nan;98639.56;4993200;28;20423;-63
2022/06/04 04:46:28;;;;;;;2.22;2.03;;;;;;;21.91;nan;98636.06;4991006;28;20065;-63
2022/06/04 04:48:53;;;;;;;3.72;2.30;;;;;;;22.00;nan;98637.28;4988991;28;20518;-63
2022/06/04 04:51:24;;;;;;;3.15;1.88;;;;;;;22.08;nan;98637.63;4988918;28;20033;-62
2022/06/04 04:53:51;;;;;;;3.78;2.38;;;;;;;22.06;nan;98622.06;4988172;28;20444;-63
2022/06/04 04:56:19;;;;;;;2.33;2.10;;;;;;;22.09;nan;98618.41;4987729;28;20080;-63
2022/06/04 04:58:45;;;;;;;2.03;1.77;;;;;;;22.14;nan;98632.84;4988571;28;20046;-63
2022/06/04 05:01:14;;;;;;;2.47;1.92;;;;;;;22.14;nan;98629.41;4993794;28;20046;-64
2022/06/04 05:03:40;;;;;;;2.47;2.17;;;;;;;22.08;nan;98612.34;4991748;28;20115;-63
2022/06/04 05:06:05;;;;;;;3.00;2.10;;;;;;;22.07;nan;98615.03;4988834;28;20038;-62
2022/06/04 05:08:31;;;;;;;3.33;2.30;;;;;;;22.17;nan;98626.56;4996005;28;20034;-62
2022/06/04 05:11:04;;;;;;;3.08;2.22;;;;;;;22.06;nan;98637.75;4987718;28;20034;-64
2022/06/04 05:13:30;;;;;;;2.47;2.00;;;;;;;22.25;nan;98645.19;4992978;28;20042;-62
2022/06/04 05:15:56;;;;;;;1.90;1.80;;;;;;;22.22;nan;98622.72;4988713;28;20544;-62
2022/06/04 05:18:21;;;;;;;3.05;2.30;;;;;;;22.39;nan;98639.88;4988961;28;20041;-63
2022/06/04 05:20:47;;;;;;;2.00;1.73;;;;;;;22.29;nan;98633.59;4995952;28;20038;-63
2022/06/04 05:23:12;;;;;;;2.53;1.95;;;;;;;22.43;nan;98643.13;4998071;28;20462;-63
2022/06/04 05:25:38;;;;;;;3.03;2.33;;;;;;;22.48;nan;98651.50;4993309;28;20037;-62
2022/06/04 05:28:03;;;;;;;2.30;2.17;;;;;;;22.41;nan;98648.44;4992025;28;20036;-64
2022/06/04 05:30:29;;;;;;;1.92;1.83;;;;;;;22.42;nan;98644.91;4995239;28;20042;-62
2022/06/04 05:32:54;;;;;;;2.28;2.10;;;;;;;22.59;nan;98642.00;4994155;28;20064;-63
2022/06/04 05:35:20;;;;;;;5.32;2.60;;;;;;;22.48;nan;98647.13;4992459;28;20040;-62
2022/06/04 05:37:45;;;;;;;2.28;2.10;;;;;;;22.68;nan;98654.44;4991914;28;20037;-63
2022/06/04 05:40:10;;;;;;;2.67;2.05;;;;;;;23.12;nan;98648.81;4996923;28;20136;-63
2022/06/04 05:42:36;;;;;;;2.17;2.08;;;;;;;23.17;nan;98640.63;4994566;28;20037;-63
2022/06/04 05:45:01;;;;;;;2.45;2.35;;;;;;;23.27;nan;98635.59;4992553;28;20069;-63
2022/06/04 05:47:28;;;;;;;2.67;2.20;;;;;;;23.43;nan;98644.03;4995783;28;20037;-62
2022/06/04 05:49:53;;;;;;;2.25;2.05;;;;;;;23.41;nan;98652.00;4996800;28;20045;-63
2022/06/04 05:52:20;;;;;;;2.30;2.10;;;;;;;23.55;nan;98651.06;4993487;28;20436;-64
2022/06/04 05:54:45;;;;;;;1.85;1.75;;;;;;;23.85;nan;98655.88;4995132;28;20436;-62
2022/06/04 05:57:11;;;;;;;3.53;2.25;;;;;;;23.68;nan;98639.56;4995551;28;20036;-62
2022/06/04 05:59:36;;;;;;;2.22;2.03;;;;;;;23.70;nan;98634.22;4996071;28;20034;-62
2022/06/04 06:02:02;;;;;;;2.80;2.55;;;;;;;23.96;nan;98641.03;4990858;28;20042;-63
2022/06/04 06:04:27;;;;;;;2.47;2.33;;;;;;;23.85;nan;98640.97;4992184;28;20493;-63
2022/06/04 06:06:54;;;;;;;2.38;2.10;;;;;;;23.48;nan;98639.34;4995808;28;20472;-63
2022/06/04 06:09:23;;;;;;;2.67;2.42;;;;;;;23.36;nan;98643.63;4998153;28;20262;-62
2022/06/04 06:11:49;;;;;;;2.20;2.10;;;;;;;23.22;nan;98649.00;4992946;28;20037;-62
2022/06/04 06:14:16;;;;;;;2.53;1.88;;;;;;;23.43;nan;98650.13;4991432;28;20073;-63
2022/06/04 06:16:44;;;;;;;2.10;2.00;;;;;;;23.60;nan;98643.69;4997178;28;20064;-62
2022/06/04 06:19:13;;;;;;;2.42;2.25;;;;;;;23.71;nan;98646.38;4996326;28;20049;-63
2022/06/04 06:21:39;;;;;;;2.28;2.10;;;;;;;23.79;nan;98645.81;4989973;28;20042;-63
2022/06/04 06:24:08;;;;;;;3.50;2.15;;;;;;;23.77;nan;98651.16;4992673;28;20065;-63
2022/06/04 06:26:40;;;;;;;2.20;2.10;;;;;;;24.05;nan;98639.53;4995254;28;20117;-63
2022/06/04 06:29:06;;;;;;;3.85;2.25;;;;;;;24.10;nan;98637.41;4993943;28;20450;-63
2022/06/04 06:31:33;;;;;;;1.85;1.75;;;;;;;24.26;nan;98642.38;4990351;28;21996;-63
2022/06/04 06:33:59;;;;;;;2.50;2.33;;;;;;;24.62;nan;98641.38;4993234;28;20058;-63
2022/06/04 06:36:24;;;;;;;3.03;2.13;;;;;;;24.60;nan;98638.06;4995083;28;20396;-63
2022/06/04 06:38:50;;;;;;;2.33;1.92;;;;;;;24.52;nan;98639.47;4992959;28;20594;-63
2022/06/04 06:41:18;;;;;;;2.30;2.20;;;;;;;24.31;nan;98630.59;4990735;28;20037;-63
2022/06/04 06:43:49;;;;;;;2.70;2.50;;;;;;;24.54;nan;98649.81;4994263;28;20069;-63
2022/06/04 06:46:19;;;;;;;3.47;2.47;;;;;;;24.38;nan;98650.16;4994685;28;20461;-62
2022/06/04 06:48:46;;;;;;;2.53;2.20;;;;;;;24.48;nan;98651.16;4992129;28;20042;-62
2022/06/04 06:51:11;;;;;;;2.47;2.22;;;;;;;24.38;nan;98654.56;4999158;28;20050;-62
2022/06/04 06:53:37;;;;;;;2.00;1.90;;;;;;;24.58;nan;98661.75;4993845;28;20156;-62
2022/06/04 06:56:10;;;;;;;2.88;2.60;;;;;;;24.49;nan;98660.66;4989549;28;20038;-63
2022/06/04 06:58:35;;;;;;;2.53;2.42;;;;;;;24.46;nan;98650.41;4991922;28;20064;-64
2022/06/04 07:01:01;;;;;;;2.60;2.40;;;;;;;24.70;nan;98650.31;4989877;28;20045;-63
2022/06/04 07:03:26;;;;;;;2.97;2.35;;;;;;;24.84;nan;98652.75;4991259;28;20470;-64
2022/06/04 07:05:55;;;;;;;3.92;2.50;;;;;;;24.90;nan;98657.56;4995110;28;20117;-63
2022/06/04 07:08:22;;;;;;;2.60;2.33;;;;;;;24.65;nan;98633.28;4990023;28;20551;-63
2022/06/04 07:10:47;;;;;;;3.55;2.15;;;;;;;24.98;nan;98656.97;4991348;28;20042;-63
2022/06/04 07:13:13;;;;;;;2.40;2.30;;;;;;;24.97;nan;98648.25;4990267;28;20761;-64
2022/06/04 07:15:38;;;;;;;2.97;2.75;;;;;;;24.90;nan;98651.47;4990619;28;20502;-64
2022/06/04 07:18:04;;;;;;;6.07;3.13;;;;;;;24.99;nan;98658.63;5005562;28;20065;-63
2022/06/04 07:20:29;;;;;;;2.10;1.98;;;;;;;24.99;nan;98656.81;4991069;28;20449;-63
2022/06/04 07:22:54;;;;;;;2.92;2.72;;;;;;;25.03;nan;98654.81;4990656;28;20073;-64
2022/06/04 07:25:21;;;;;;;3.10;2.47;;;;;;;25.16;nan;98666.03;4988951;28;20034;-63
2022/06/04 07:27:47;;;;;;;2.90;2.70;;;;;;;25.32;nan;98660.41;4989585;28;20618;-64
2022/06/04 07:30:12;;;;;;;3.17;2.85;;;;;;;25.40;nan;98658.84;4991271;28;20134;-65
2022/06/04 07:32:38;;;;;;;3.05;2.85;;;;;;;24.99;nan;98662.06;4990550;28;20460;-63
2022/06/04 07:35:03;;;;;;;2.80;2.67;;;;;;;25.17;nan;98651.94;4991947;28;20041;-64
2022/06/04 07:37:29;;;;;;;5.22;3.17;;;;;;;25.25;nan;98662.69;4989839;28;20382;-64
2022/06/04 07:39:54;;;;;;;4.18;2.55;;;;;;;25.25;nan;98654.81;5005247;28;20026;-66
2022/06/04 07:42:20;;;;;;;3.72;3.42;;;;;;;25.12;nan;98651.47;4988793;28;20041;-67
2022/06/04 07:44:45;;;;;;;2.80;2.47;;;;;;;25.45;nan;98656.72;4989688;28;20091;-66
2022/06/04 07:47:12;;;;;;;2.78;2.58;;;;;;;25.35;nan;98655.75;4989682;28;20042;-66
2022/06/04 07:49:38;;;;;;;2.97;2.25;;;;;;;25.42;nan;98659.56;4993708;28;20077;-65
2022/06/04 07:52:03;;;;;;;2.90;2.70;;;;;;;25.45;nan;98661.13;4993127;28;20122;-67
2022/06/04 07:54:31;;;;;;;3.95;2.85;;;;;;;25.58;nan;98667.09;4989762;28;20033;-66
2022/06/04 07:56:57;;;;;;;2.90;2.70;;;;;;;25.81;nan;98652.94;4998293;28;20392;-66
2022/06/04 07:59:23;;;;;;;2.83;2.55;;;;;;;25.81;nan;98655.56;4993676;28;20126;-67
2022/06/04 08:01:49;;;;;;;2.97;2.78;;;;;;;26.01;nan;98667.13;4991366;28;20041;-67
2022/06/04 08:04:15;;;;;;;2.25;2.15;;;;;;;26.16;nan;98672.91;4989464;28;20030;-67
2022/06/04 08:06:40;;;;;;;3.10;2.90;;;;;;;26.28;nan;98683.28;4990549;28;20053;-67
2022/06/04 08:09:06;;;;;;;3.60;3.30;;;;;;;26.33;nan;98678.47;4994467;28;20030;-67
2022/06/04 08:11:32;;;;;;;4.15;2.80;;;;;;;26.62;nan;98673.41;4989375;28;20041;-66
2022/06/04 08:14:23;;;;;;;5.80;2.78;;;;;;;26.84;nan;98688.22;4990224;28;20038;-66
2022/06/04 08:16:51;;;;;;;3.53;3.22;;;;;;;26.33;nan;98675.84;5006519;28;20400;-65
2022/06/04 08:19:17;;;;;;;3.40;3.10;;;;;;;26.64;nan;98681.19;4993276;28;20416;-65
2022/06/04 08:21:43;;;;;;;2.85;2.65;;;;;;;26.54;nan;98675.84;4992510;28;20038;-66
2022/06/04 08:24:10;;;;;;;3.55;2.92;;;;;;;26.87;nan;98690.63;4989140;28;20469;-67
2022/06/04 08:26:35;;;;;;;3.08;2.88;;;;;;;26.96;nan;98684.59;4990862;28;20111;-67
2022/06/04 08:29:01;;;;;;;2.95;2.70;;;;;;;26.47;nan;98687.03;4994364;28;20038;-67
2022/06/04 08:31:26;;;;;;;5.97;3.78;;;;;;;26.35;nan;98694.13;4990715;28;20480;-67
2022/06/04 08:33:52;;;;;;;2.95;2.70;;;;;;;26.17;nan;98693.81;4988170;28;20459;-66
2022/06/04 08:36:19;;;;;;;2.20;2.10;;;;;;;26.36;nan;98691.38;4991297;28;20030;-67
2022/06/04 08:38:45;;;;;;;3.10;2.90;;;;;;;26.46;nan;98686.19;4993748;28;20074;-66
2022/06/04 08:41:25;;;;;;;3.72;3.28;;;;;;;26.47;nan;98673.88;4991323;28;20651;-66
2022/06/04 08:44:13;;;;;;;4.55;2.50;;;;;;;26.47;nan;98671.25;4988526;28;20148;-66
2022/06/04 08:46:49;;;;;;;4.43;2.72;;;;;;;26.41;nan;98674.38;4992878;28;20034;-62
2022/06/04 08:49:23;;;;;;;2.40;2.30;;;;;;;26.43;nan;98649.63;5000690;28;20121;-60
2022/06/04 08:51:48;;;;;;;2.55;2.33;;;;;;;26.67;nan;98671.25;4988930;28;20026;-60
2022/06/04 09:00:00;;;;;;;2.78;2.50;;;;;;;26.86;nan;98653.94;4990972;28;20084;-61
2022/06/04 09:02:40;;;;;;;3.55;2.30;;;;;;;27.01;nan;98650.81;4987690;28;20038;-61
2022/06/04 09:05:40;;;;;;;3.22;2.47;;;;;;;27.12;nan;98655.16;4993194;28;20030;-60
2022/06/04 09:08:14;;;;;;;2.97;2.70;;;;;;;27.15;nan;98650.47;4953357;28;20145;-58
2022/06/04 09:10:49;;;;;;;4.65;2.10;;;;;;;26.91;nan;98663.09;4947463;28;20074;-62
2022/06/04 09:13:35;;;;;;;16.10;4.05;;;;;;;27.01;nan;98663.97;4951063;28;20174;-61
2022/06/04 09:16:14;;;;;;;2.50;2.40;;;;;;;27.25;nan;98659.22;4953449;28;20047;-64
2022/06/04 09:18:41;;;;;;;2.38;2.28;;;;;;;27.41;nan;98657.91;4935779;28;20129;-64
2022/06/04 09:21:10;;;;;;;3.15;2.60;;;;;;;27.31;nan;98654.41;4947204;28;20077;-63
2022/06/04 09:23:35;;;;;;;3.10;2.80;;;;;;;27.08;nan;98661.63;4952039;28;20581;-63
2022/06/04 09:26:04;;;;;;;2.80;2.60;;;;;;;27.33;nan;98663.00;4952010;28;20051;-64
2022/06/04 09:28:41;;;;;;;2.47;2.30;;;;;;;27.43;nan;98659.44;4950065;28;20062;-63
2022/06/04 09:31:14;;;;;;;3.28;2.78;;;;;;;27.46;nan;98666.22;4948152;28;20213;-63
2022/06/04 09:33:50;;;;;;;2.90;2.47;;;;;;;27.55;nan;98649.66;4949579;28;20055;-63
2022/06/04 09:36:22;;;;;;;4.57;3.15;;;;;;;27.41;nan;98650.00;4952895;28;20113;-63
2022/06/04 09:38:57;;;;;;;2.53;2.25;;;;;;;27.33;nan;98652.47;4947853;28;20106;-63
2022/06/04 09:41:25;;;;;;;3.47;2.60;;;;;;;27.53;nan;98651.59;4948850;28;20045;-64
2022/06/04 09:44:05;;;;;;;3.13;2.15;;;;;;;27.56;nan;98653.94;4962191;28;20058;-63
2022/06/04 09:46:32;;;;;;;4.03;2.75;;;;;;;27.85;nan;98652.19;4990289;28;20080;-64
2022/06/04 09:48:59;;;;;;;2.72;2.63;;;;;;;27.60;nan;98656.19;4987323;28;20045;-62
2022/06/04 09:51:37;;;;;;;2.58;2.40;;;;;;;27.74;nan;98644.44;4987873;28;20041;-63
2022/06/04 09:54:05;;;;;;;2.60;2.40;;;;;;;27.79;nan;98646.66;4990038;28;20092;-64
2022/06/04 09:56:41;;;;;;;2.75;2.60;;;;;;;27.78;nan;98637.91;4990367;28;20160;-62
2022/06/04 09:59:28;;;;;;;3.00;2.80;;;;;;;27.64;nan;98649.66;4987452;28;20628;-62
2022/06/04 10:02:16;;;;;;;2.95;2.72;;;;;;;28.03;nan;98655.81;4990103;28;20030;-64
2022/06/04 10:04:47;;;;;;;2.83;2.53;;;;;;;27.94;nan;98664.56;4989223;28;20030;-64
2022/06/04 10:07:16;;;;;;;2.65;2.45;;;;;;;27.95;nan;98658.31;4991217;28;20049;-63
2022/06/04 10:09:56;;;;;;;2.80;2.60;;;;;;;28.02;nan;98658.59;4996072;28;20049;-64
2022/06/04 10:15:36;;;;;;;3.53;3.22;;;;;;;27.96;nan;98665.28;4990768;28;20133;-64
2022/06/04 10:18:28;;;;;;;2.50;2.30;;;;;;;28.24;nan;98665.44;4989609;28;20076;-64
2022/06/04 10:21:18;;;;;;;3.13;2.92;;;;;;;28.32;nan;98658.50;4990934;28;20050;-66
2022/06/04 10:23:47;;;;;;;4.45;2.35;;;;;;;28.24;nan;98658.34;4994422;28;20038;-64
2022/06/04 10:26:25;;;;;;;2.40;2.20;;;;;;;28.24;nan;98658.34;4991301;28;20363;-63
2022/06/04 10:28:58;;;;;;;2.92;2.72;;;;;;;28.34;nan;98642.53;4991069;28;20076;-63
2022/06/04 10:31:36;;;;;;;3.53;2.83;;;;;;;28.54;nan;98655.56;4992384;28;20128;-64
2022/06/04 10:34:20;;;;;;;3.20;2.70;;;;;;;28.62;nan;98657.47;4990164;28;20526;-63
2022/06/04 10:37:13;;;;;;;2.63;2.42;;;;;;;28.38;nan;98643.91;4993034;28;20648;-64
2022/06/04 10:39:59;;;;;;;3.13;2.33;;;;;;;28.28;nan;98654.47;4996744;28;20048;-63
2022/06/04 10:42:35;;;;;;;3.42;3.22;;;;;;;28.70;nan;98667.34;4996414;28;20046;-63
2022/06/04 10:45:14;;;;;;;2.35;2.25;;;;;;;28.73;nan;98659.16;4990692;28;20042;-63
2022/06/04 10:47:50;;;;;;;3.03;2.72;;;;;;;28.80;nan;98652.34;4990093;28;20077;-63
2022/06/04 10:51:25;;;;;;;7.18;2.72;;;;;;;28.72;nan;98660.97;4993369;28;20042;-64
2022/06/04 10:53:48;;;;;;;2.63;2.53;;;;;;;28.46;nan;98642.25;4975415;28;20052;-63
2022/06/04 10:56:23;;;;;;;5.32;2.88;;;;;;;28.60;nan;98654.16;4992454;28;20499;-64
2022/06/04 10:58:59;;;;;;;3.42;3.20;;;;;;;28.61;nan;98654.00;4995155;28;20038;-63
2022/06/04 11:01:34;;;;;;;3.60;3.05;;;;;;;28.75;nan;98647.47;4994245;28;20034;-63
2022/06/04 11:04:48;;;;;;;3.10;2.80;;;;;;;28.75;nan;98644.00;4990942;28;20042;-63
2022/06/04 11:07:53;;;;;;;3.60;3.28;;;;;;;28.85;nan;98632.47;4921509;29;20474;-63
2022/06/04 11:10:24;;;;;;;5.17;2.93;;;;;;;28.86;nan;98636.75;4921429;29;20059;-63
2022/06/04 11:12:59;;;;;;;3.58;2.83;;;;;;;28.90;nan;98635.47;4921966;29;20067;-64
2022/06/04 11:15:56;;;;;;;3.15;2.90;;;;;;;29.15;nan;98638.47;4923630;29;20095;-64
2022/06/04 11:18:32;;;;;;;2.88;2.63;;;;;;;29.00;nan;98635.44;4886013;29;20052;-63
2022/06/04 11:21:05;;;;;;;4.72;3.20;;;;;;;28.90;nan;98624.09;4883508;29;20041;-63
2022/06/04 11:23:40;;;;;;;5.22;3.35;;;;;;;29.11;nan;98645.81;4883167;29;20189;-63
2022/06/04 11:26:21;;;;;;;3.75;3.33;;;;;;;28.93;nan;98635.22;4882830;29;20033;-63
2022/06/04 11:28:46;;;;;;;4.10;2.72;;;;;;;28.93;nan;98635.22;4886805;29;20769;-63
2022/06/04 11:31:50;;;;;;;3.40;3.10;;;;;;;28.87;nan;98630.50;4885999;29;20292;-63
2022/06/04 11:34:40;;;;;;;6.57;3.25;;;;;;;29.05;nan;98635.84;4886552;29;20083;-65
2022/06/04 11:37:34;;;;;;;3.85;3.55;;;;;;;29.21;nan;98628.13;4888738;29;20057;-63
2022/06/04 11:39:59;;;;;;;5.68;3.03;;;;;;;29.23;nan;98631.47;4884700;29;20043;-64
2022/06/04 11:42:55;;;;;;;6.15;3.88;;;;;;;29.40;nan;98641.28;4887838;28;20048;-62
2022/06/04 11:45:31;;;;;;;4.15;3.83;;;;;;;29.45;nan;98625.00;4939979;28;20047;-63
2022/06/04 11:48:16;;;;;;;3.45;3.20;;;;;;;29.54;nan;98629.38;4943415;28;20051;-63
2022/06/04 11:51:01;;;;;;;6.88;3.03;;;;;;;29.62;nan;98610.16;4937466;28;20062;-63
2022/06/04 11:53:29;;;;;;;4.85;3.30;;;;;;;29.75;nan;98627.28;4939897;28;20050;-63
2022/06/04 11:56:04;;;;;;;4.35;3.97;;;;;;;29.62;nan;98610.94;4986950;28;20060;-63
2022/06/04 11:58:51;;;;;;;4.82;3.30;;;;;;;29.79;nan;98609.34;4989760;28;20054;-63
2022/06/04 12:01:37;;;;;;;5.63;3.90;;;;;;;29.67;nan;98613.97;4988554;28;20439;-63
2022/06/04 12:04:14;;;;;;;3.60;3.22;;;;;;;29.62;nan;98595.09;4994260;28;20030;-63
2022/06/04 12:06:47;;;;;;;5.10;2.88;;;;;;;29.82;nan;98596.63;4993784;28;20038;-63
2022/06/04 12:09:20;;;;;;;3.97;3.25;;;;;;;29.84;nan;98602.59;4989032;28;20340;-63
2022/06/04 12:12:10;;;;;;;3.55;3.20;;;;;;;29.60;nan;98601.53;5006390;28;20038;-63
2022/06/04 12:14:42;;;;;;;4.00;3.60;;;;;;;29.79;nan;98596.91;5010212;28;20038;-63
2022/06/04 12:17:32;;;;;;;3.05;2.85;;;;;;;29.80;nan;98592.47;4991059;28;20038;-63
2022/06/04 12:25:42;;;;;;;4.93;2.95;;;;;;;29.67;nan;98592.84;4991451;28;20040;-63
2022/06/04 12:28:39;;;;;;;4.30;3.33;;;;;;;30.07;nan;98588.94;4990302;28;20030;-63
2022/06/04 12:31:04;;;;;;;3.50;3.22;;;;;;;30.16;nan;98580.09;4993791;28;20034;-63
2022/06/04 12:33:41;;;;;;;5.13;3.63;;;;;;;30.06;nan;98597.84;4993809;28;20069;-63
2022/06/04 12:36:10;;;;;;;3.70;3.50;;;;;;;29.96;nan;98589.19;4990191;28;20030;-63
2022/06/04 12:38:40;;;;;;;3.53;3.33;;;;;;;29.76;nan;98577.88;4988379;28;20046;-63